My Meet Scores
Anna Guest, The Gymnastics Shop - MyMeetScores.com
Top100 | Top Teams | Upcoming Meets | Completed Meets | Latest | Add Scores | Help| Support | Bookmark and Share

Anna Guest, The Gymnastics Shop
Personal Bests
LevelVault BarsBeamFloorAA
39.5008.800 9.0509.37536.150
48.8258.450 8.8759.00034.300
59.1757.100 9.2508.65033.575
69.3008.900 9.0259.30035.400
78.8007.300 8.3508.25032.100
Meet Scores
Date Meet Team Session Level Division Vault Bars Beam Floor AA
2019-12-06 Ultimate Wish Classic The Gymnastics Shop 5 7 SR A 8.275 12 7.300 13 8.350 10 8.175 11 32.100 11
2019-11-08 Illinois Judges Cup The Gymnastics Shop P2 7 All Ages 8.800 39 6.200 36 7.750 32T 8.250 34 31.000 37
2019-03-15 Illinois State Championship Level 6,9,10 The Gymnastics Shop 8 6 Sr C 8.650 16 8.250 21 8.600 17 9.125 16T 34.625 20
2019-02-08 IGI Chicago Style 2019 The Gymnastics Shop 25 6 122 State L6 B 8.950 8 8.900 12 8.775 18 8.775 19 35.400 17
2019-01-25 Great Destinations - California 2019 The Gymnastics Shop 06B 6 JR B 8.600 7 7.425 9 8.825 4 8.750 10 33.600 9
2019-01-18 2019 Bravo Classic The Gymnastics Shop 8A 6 Jr 8.700 4 8.300 9 9.025 4 9.150 8T 35.175 7
2019-01-11 St Jude Benefit Meet The Gymnastics Shop 1B 6 Sr B 8.350 12T 7.400 14 8.825 4T 8.725 13 33.300 12
2018-12-07 St. Nick Invite 2018 The Gymnastics Shop 2 6 SrA 8.900 5 7.400 11 8.775 6 8.825 10 33.900 9
2018-11-30 Ultimate Wish Classic The Gymnastics Shop 1 6 JR 9.075 4 7.500 16T 8.550 12T 8.900 10 34.025 12
2018-03-16 2018 Illinois Level 6, 9, 10 State Championships The Gymnastics Shop 10 6 Jr B 9.300 4T 7.900 20 8.650 19 9.300 19 35.150 19
2018-02-23 Kinetic Classic The Gymnastics Shop 9 6 Middle 8.525 58T 7.400 70 8.875 45T 9.000 60 33.800 66
2018-02-17 Women's Midwest Open The Gymnastics Shop 11 6 JR B 9.150 9 8.500 14T 8.750 14 8.150 16 34.550 15T
2018-02-08 Nashville Nights 2018 The Gymnastics Shop B09 6 JrB 8.675 5 6.900 9 8.500 6 8.350 8 32.425 7
2018-01-19 2018 Bravo Classic The Gymnastics Shop 2A 6 Jr 9.125 7 7.350 21 8.425 19 7.950 21 32.850 20
2018-01-12 St Jude Benefit Meet The Gymnastics Shop 6C 6 JrB 8.325 15 7.900 13 7.000 15 8.300 15 31.525 15
2017-12-08 St. Nick Invite The Gymnastics Shop 5B 6 JrA 9.175 5T 7.725 11 8.650 7T 8.750 9T 34.300 11
2017-12-01 Ultimate Wish Classic The Gymnastics Shop 1 6 JR 9.225 4 7.100 13 8.200 14 8.500 15 33.025 14
2017-11-10 Illinois NAWGJ Judges Cup 2017 The Gymnastics Shop S3 6 All Ages 8.700 22T 7.650 39 8.125 40 8.600 44 33.075 40
2017-03-10 Lucky Invitational Northbrook Gymnastics Training Center A08 5 Jr B 8.800 12T 6.800 20 7.850 13 8.550 15 32.000 18
2017-02-17 Midwest Open Northbrook Gymnastics Training Center 7 5 JR B 9.175 8 7.100 18 8.650 11 8.650 16 33.575 15
2017-01-28 Wisconsin Dells Gymnastics Vacation Classic - USAG Northbrook Gymnastics Training Center B1 5 Junior 9.050 1 5.450 13 9.250 3 8.075 10 31.825 10
2016-12-09 St. Nick Invite Northbrook Gymnastics Training Center 1 5 JrA 9.025 3 6.300 21 7.775 20 7.975 21 31.075 21
2016-03-10 2016 Illinois Level 4 State Meet Northbrook Gymnastics Training Center All 4 Youth-B 8.825 11 7.625 27 8.850 15 9.000 14 34.300 21
2016-02-19 Midwest Open Womens 2016 Northbrook Gymnastics Training Center 6A 4 9 8.400 6 8.450 16 8.875 11 8.550 17 34.275 12
2016-02-12 IGI Chicago Style Gymnastics Meet Northbrook Gymnastics Training Center 623 4 JrB 7.700 22 7.600 21 8.775 11 8.650 19 32.725 21
2016-01-08 Legacy Elite Winter Classic Northbrook Gymnastics Training Center 3B 4 Ch 8.250 12 7.700 12 7.850 16 8.500 10 32.300 14
2015-12-11 St. Nick Invite Northbrook Gymnastics Training Center 7B 4 Child 7.700 15T 6.250 18 8.550 10T 8.000 16 30.500 17
2015-03-12 2015 Illinois Level 3 State Championship Northbrook Gymnastics Training Center All 3 Youth-D 9.500 1 8.700 26 9.050 15 8.900 22 36.150 18
2015-01-09 Legacy Elite Winter Classic 2015 Northbrook Gymnastics Training Center 5B 3 Jr A 9.000 15T 7.625 16 8.275 12 9.375 1 34.275 13T
2014-03-07 Illinois Level 3 State Meet Northbrook Gymnastics Training Center 3 3 Child C 9.000 31 8.800 23 8.300 29 8.750 23 34.850 27
Get your scores on
a t-shirt, pin, or hoodie

Order by December 13

www.lazysuits.com